ETHF/FRZ METAR and TAF weather

Enter ICAO airport designator
Station Type Date Time Source
ETHF METAR 2018/06/25 01:20 UTC NOAA

ETHF 250120Z 30003KT 8000 SCT012 BKN022 13/11 Q1021 WHT


Station Type Date Time Source
ETHF Decoded METAR 2018/06/25 01:20 UTC NOAA

Fritzlar, Germany (ETHF) 51-07N 009-17E 181M
Jun 24, 2018 - 09:20 PM EDT / 2018.06.25 0120 UTC
Wind: from the WNW (300 degrees) at 3 MPH (3 KT):0
Visibility: 4 mile(s):0
Sky conditions: mostly cloudy
Temperature: 55 F (13 C)
Dew Point: 51 F (11 C)
Relative Humidity: 87%
Pressure (altimeter): 30.15 in. Hg (1021 hPa)
ob: ETHF 250120Z 30003KT 8000 SCT012 BKN022 13/11 Q1021 WHT
cycle: 1

Station Type Date Time Source
ETHF TAF 2018/05/18 05:37 UTC NOAA

TAF ETHF 180407Z 1805/1818 35006KT 9999 NSW BKN020
TEMPO 1805/1808 33005KT 9999 NSW BKN012
BECMG 1809/1811 36008KT 9999 NSW SCT030 BKN180


Example: see airport list